createdAt,value
2018-03-23T00:00:47.401Z,69.73
2018-03-23T00:03:16.547Z,71.50
2018-03-23T00:05:45.323Z,72.73
2018-03-23T00:08:14.161Z,74.00
2018-03-23T00:10:43.149Z,75.57
2018-03-23T00:13:11.990Z,72.93
2018-03-23T00:15:40.770Z,69.27
2018-03-23T00:18:09.708Z,71.20
2018-03-23T00:20:38.881Z,71.17
2018-03-23T00:23:07.890Z,72.95
2018-03-23T00:25:36.733Z,70.20
2018-03-23T00:28:06.322Z,69.73
2018-03-23T00:30:36.048Z,71.23
2018-03-23T00:33:05.805Z,73.57
2018-03-23T00:35:34.564Z,71.60
2018-03-23T00:38:03.574Z,71.20
2018-03-23T00:40:32.669Z,73.83
2018-03-23T00:43:03.444Z,82.47
2018-03-23T00:45:32.319Z,80.57
2018-03-23T00:48:01.096Z,71.77
2018-03-23T00:50:31.129Z,70.37
2018-03-23T00:53:00.037Z,74.30
2018-03-23T00:55:28.903Z,72.97
2018-03-23T00:57:58.915Z,73.00
2018-03-23T01:00:27.735Z,80.53
2018-03-23T01:02:56.604Z,76.03
2018-03-23T01:05:25.428Z,75.10
2018-03-23T01:07:54.282Z,75.27
2018-03-23T01:10:23.203Z,66.72
2018-03-23T01:12:52.966Z,72.68
2018-03-23T01:15:21.835Z,66.33
2018-03-23T01:17:50.947Z,68.90
2018-03-23T01:20:19.939Z,71.43
2018-03-23T01:22:48.998Z,64.90
2018-03-23T01:25:18.342Z,64.97
2018-03-23T01:27:47.234Z,67.65
2018-03-23T01:30:16.247Z,67.25
2018-03-23T01:32:45.239Z,69.15
2018-03-23T01:35:14.055Z,67.93
2018-03-23T01:37:43.941Z,79.55
2018-03-23T01:40:12.765Z,82.40
2018-03-23T01:42:41.674Z,76.63
2018-03-23T01:45:10.912Z,80.47
2018-03-23T01:47:39.795Z,73.50
2018-03-23T01:50:08.705Z,68.87
2018-03-23T01:52:37.718Z,70.18
2018-03-23T01:55:06.529Z,70.05
2018-03-23T01:57:35.485Z,66.18
2018-03-23T02:00:04.394Z,72.15
2018-03-23T02:02:33.292Z,72.37
2018-03-23T02:05:03.482Z,72.22
2018-03-23T02:07:32.355Z,67.30
2018-03-23T02:10:01.435Z,66.72
2018-03-23T02:12:30.258Z,68.60
2018-03-23T02:14:59.077Z,65.70
2018-03-23T02:17:28.675Z,62.53
2018-03-23T02:19:58.348Z,64.35
2018-03-23T02:22:27.316Z,62.95
2018-03-23T02:24:56.303Z,63.50
2018-03-23T02:27:26.318Z,60.17
2018-03-23T02:29:55.262Z,65.45
2018-03-23T02:32:29.068Z,59.45
2018-03-23T02:34:58.126Z,59.13
2018-03-23T02:37:26.983Z,58.20
2018-03-23T02:39:56.637Z,60.63
2018-03-23T02:42:25.582Z,59.35
2018-03-23T02:44:55.720Z,62.97
2018-03-23T02:47:24.596Z,59.50
2018-03-23T02:49:53.483Z,58.92
2018-03-23T02:52:23.136Z,59.35
2018-03-23T02:54:52.038Z,59.72
2018-03-23T02:57:20.866Z,58.47
2018-03-23T02:59:50.822Z,60.35
2018-03-23T03:02:19.796Z,59.40
2018-03-23T03:04:49.546Z,59.03
2018-03-23T03:07:18.682Z,57.90
2018-03-23T03:09:47.877Z,62.58
2018-03-23T03:12:17.409Z,56.65
2018-03-23T03:14:46.265Z,61.78
2018-03-23T03:17:15.155Z,62.85
2018-03-23T03:19:44.013Z,61.28
2018-03-23T03:22:12.905Z,57.58
2018-03-23T03:24:41.899Z,59.70
2018-03-23T03:27:10.649Z,60.63
2018-03-23T03:29:39.725Z,61.70
2018-03-23T03:32:09.760Z,67.57
2018-03-23T03:34:38.769Z,61.58
2018-03-23T03:37:07.557Z,69.82
2018-03-23T03:39:36.460Z,65.87
2018-03-23T03:42:05.563Z,64.10
2018-03-23T03:44:34.446Z,68.65
2018-03-23T03:47:03.560Z,57.78
2018-03-23T03:49:33.141Z,68.18
2018-03-23T03:52:01.998Z,72.55
2018-03-23T03:54:31.574Z,67.10
2018-03-23T03:57:00.451Z,60.30
2018-03-23T03:59:29.342Z,63.50
2018-03-23T04:01:58.296Z,65.05
2018-03-23T04:04:29.140Z,66.50
2018-03-23T04:07:04.886Z,62.40
2018-03-23T04:09:37.089Z,67.55
2018-03-23T04:12:06.739Z,96.37
2018-03-23T04:14:37.597Z,83.45
2018-03-23T04:17:07.683Z,78.85
2018-03-23T04:19:37.372Z,76.68
2018-03-23T04:22:07.461Z,77.65
2018-03-23T04:24:37.648Z,72.43
2018-03-23T04:27:06.623Z,73.07
2018-03-23T04:29:35.628Z,72.53
2018-03-23T04:32:05.357Z,70.90
2018-03-23T04:34:34.376Z,78.90
2018-03-23T04:37:04.197Z,70.50
2018-03-23T04:39:33.068Z,75.10
2018-03-23T04:42:02.103Z,74.78
2018-03-23T04:44:31.280Z,86.33
2018-03-23T04:47:00.069Z,93.63
2018-03-23T04:49:29.028Z,77.93
2018-03-23T04:51:57.878Z,83.55
2018-03-23T04:54:27.714Z,84.60
2018-03-23T04:56:57.409Z,81.12
2018-03-23T04:59:26.989Z,81.93
2018-03-23T05:01:55.913Z,73.80
2018-03-23T05:04:25.014Z,86.93
2018-03-23T05:06:54.184Z,110.05
2018-03-23T05:09:23.165Z,94.93
2018-03-23T05:11:52.096Z,83.60
2018-03-23T05:14:21.907Z,80.20
2018-03-23T05:16:50.883Z,99.97
2018-03-23T05:19:21.018Z,85.33
2018-03-23T05:21:50.919Z,86.37
2018-03-23T05:24:20.238Z,78.70
2018-03-23T05:26:50.048Z,84.83
2018-03-23T05:29:19.344Z,68.07
2018-03-23T05:31:49.415Z,74.30
2018-03-23T05:34:18.293Z,91.83
2018-03-23T05:36:47.183Z,79.20
2018-03-23T05:39:16.334Z,72.10
2018-03-23T05:41:45.379Z,76.83
2018-03-23T05:44:14.249Z,62.33
2018-03-23T05:46:43.115Z,63.33
2018-03-23T05:49:12.153Z,71.00
2018-03-23T05:51:41.018Z,72.77
2018-03-23T05:54:09.886Z,76.93
2018-03-23T05:56:39.094Z,67.97
2018-03-23T05:59:09.045Z,73.07
2018-03-23T06:01:38.286Z,81.77
2018-03-23T06:04:07.100Z,86.43
2018-03-23T06:06:36.657Z,97.00
2018-03-23T06:09:05.643Z,119.40
2018-03-23T06:11:34.535Z,97.03
2018-03-23T06:14:03.476Z,88.60
2018-03-23T06:16:33.072Z,88.27
2018-03-23T06:19:02.225Z,90.53
2018-03-23T06:21:31.572Z,95.00
2018-03-23T06:24:00.391Z,105.00
2018-03-23T06:26:29.559Z,86.57
2018-03-23T06:28:58.544Z,86.00
2018-03-23T06:31:28.541Z,113.73
2018-03-23T06:33:57.464Z,95.03
2018-03-23T06:36:27.124Z,105.90
2018-03-23T06:38:56.010Z,111.00
2018-03-23T06:41:24.992Z,108.53
2018-03-23T06:43:53.985Z,97.40
2018-03-23T06:46:22.903Z,108.77
2018-03-23T06:48:51.727Z,84.77
2018-03-23T06:51:20.717Z,95.03
2018-03-23T06:53:49.625Z,89.23
2018-03-23T06:56:18.548Z,109.00
2018-03-23T06:58:47.401Z,102.63
2018-03-23T07:01:16.301Z,96.67
2018-03-23T07:03:45.786Z,86.77
2018-03-23T07:06:15.362Z,90.33
2018-03-23T07:08:44.284Z,83.50
2018-03-23T07:11:14.049Z,87.47
2018-03-23T07:13:43.060Z,88.07
2018-03-23T07:16:12.065Z,91.90
2018-03-23T07:18:41.698Z,89.97
2018-03-23T07:21:10.472Z,95.73
2018-03-23T07:23:39.358Z,94.50
2018-03-23T07:26:08.518Z,101.40
2018-03-23T07:28:38.327Z,88.43
2018-03-23T07:31:07.432Z,91.67
2018-03-23T07:33:37.205Z,93.20
2018-03-23T07:36:06.023Z,90.20
2018-03-23T07:38:34.845Z,107.03
2018-03-23T07:41:04.153Z,91.80
2018-03-23T07:43:32.966Z,100.10
2018-03-23T07:46:02.562Z,92.33
2018-03-23T07:48:31.599Z,93.77
2018-03-23T07:51:00.513Z,87.13
2018-03-23T07:53:29.783Z,91.20
2018-03-23T07:55:58.905Z,90.60
2018-03-23T07:58:27.692Z,104.13
2018-03-23T08:00:56.500Z,96.20
2018-03-23T08:03:25.408Z,91.53
2018-03-23T08:05:54.313Z,96.63
2018-03-23T08:08:23.262Z,93.43
2018-03-23T08:10:52.922Z,115.37
2018-03-23T08:13:21.810Z,115.10
2018-03-23T08:15:51.441Z,122.50
2018-03-23T08:18:20.522Z,120.53
2018-03-23T08:20:49.436Z,121.83
2018-03-23T08:23:18.319Z,128.17
2018-03-23T08:25:47.231Z,124.67
2018-03-23T08:28:16.260Z,130.60
2018-03-23T08:30:46.290Z,156.87
2018-03-23T08:33:15.900Z,116.13
2018-03-23T08:35:45.416Z,107.70
2018-03-23T08:38:14.380Z,92.27
2018-03-23T08:40:43.193Z,99.57
2018-03-23T08:43:12.796Z,101.47
2018-03-23T08:45:41.708Z,98.47
2018-03-23T08:48:10.725Z,109.17
2018-03-23T08:50:40.147Z,115.20
2018-03-23T08:53:09.080Z,108.50
2018-03-23T08:55:38.878Z,112.90
2018-03-23T08:58:07.808Z,199.90
2018-03-23T09:00:36.730Z,139.70
2018-03-23T09:03:05.778Z,128.67
2018-03-23T09:05:34.641Z,127.70
2018-03-23T09:08:03.574Z,121.27
2018-03-23T09:10:32.636Z,118.67
2018-03-23T09:13:01.708Z,117.37
2018-03-23T09:15:30.577Z,110.77
2018-03-23T09:17:59.444Z,121.00
2018-03-23T09:20:28.212Z,132.37
2018-03-23T09:22:57.431Z,122.83
2018-03-23T09:25:26.350Z,123.97
2018-03-23T09:27:56.850Z,128.63
2018-03-23T09:30:26.750Z,114.87
2018-03-23T09:32:55.683Z,115.57
2018-03-23T09:35:25.107Z,135.23
2018-03-23T09:37:54.124Z,123.73
2018-03-23T09:40:22.848Z,135.90
2018-03-23T09:43:01.035Z,139.73
2018-03-23T09:45:31.898Z,136.13
2018-03-23T09:48:01.196Z,135.70
2018-03-23T09:50:30.642Z,150.60
2018-03-23T09:53:00.322Z,132.50
2018-03-23T09:55:29.785Z,135.53
2018-03-23T09:58:02.976Z,157.90
2018-03-23T10:00:34.452Z,162.30
2018-03-23T10:03:03.760Z,158.97
2018-03-23T10:05:37.604Z,168.03
2018-03-23T10:08:07.539Z,166.50
2018-03-23T10:10:36.751Z,176.77
2018-03-23T10:13:06.284Z,178.53
2018-03-23T10:15:35.215Z,165.43
2018-03-23T10:18:04.120Z,189.33
2018-03-23T10:20:33.197Z,143.13
2018-03-23T10:23:02.864Z,132.50
2018-03-23T10:25:31.867Z,149.03
2018-03-23T10:28:01.107Z,127.77
2018-03-23T10:30:30.012Z,147.23
2018-03-23T10:32:59.051Z,159.77
2018-03-23T10:35:27.958Z,148.33
2018-03-23T10:37:56.838Z,130.77
2018-03-23T10:40:25.657Z,131.13
2018-03-23T10:42:54.604Z,144.60
2018-03-23T10:45:23.441Z,152.40
2018-03-23T10:47:53.864Z,147.63
2018-03-23T10:50:22.883Z,130.90
2018-03-23T10:52:52.375Z,146.10
2018-03-23T10:55:22.548Z,135.37
2018-03-23T10:57:52.452Z,128.17
2018-03-23T11:00:27.450Z,127.57
2018-03-23T11:02:57.153Z,137.57
2018-03-23T11:05:27.008Z,119.70
2018-03-23T11:07:55.916Z,128.07
2018-03-23T11:10:25.909Z,122.13
2018-03-23T11:12:55.487Z,126.37
2018-03-23T11:15:24.562Z,112.93
2018-03-23T11:17:53.717Z,97.80
2018-03-23T11:20:23.329Z,108.40
2018-03-23T11:22:57.906Z,99.17
2018-03-23T11:25:33.054Z,102.43
2018-03-23T11:28:01.927Z,82.30
2018-03-23T11:30:30.838Z,71.17
2018-03-23T11:33:00.109Z,70.57
2018-03-23T11:35:28.919Z,70.33
2018-03-23T11:37:59.344Z,62.87
2018-03-23T11:40:29.010Z,64.53
2018-03-23T11:42:57.839Z,63.17
2018-03-23T11:45:26.972Z,53.77
2018-03-23T11:47:55.830Z,51.40
2018-03-23T11:50:24.720Z,49.20
2018-03-23T11:52:53.632Z,42.13
2018-03-23T11:55:22.520Z,43.43
2018-03-23T11:57:51.436Z,53.43
2018-03-23T12:00:20.308Z,52.23
2018-03-23T12:02:49.100Z,45.67
2018-03-23T12:05:18.057Z,55.77
2018-03-23T12:07:47.808Z,45.80
2018-03-23T12:42:05.430Z,33.50
2018-03-23T12:44:34.659Z,55.33
2018-03-23T12:47:03.659Z,64.40
2018-03-23T12:49:33.114Z,76.40
2018-03-23T12:52:02.445Z,78.90
2018-03-23T12:54:32.228Z,83.37
2018-03-23T12:57:01.396Z,50.67
2018-03-23T12:59:30.429Z,68.67
2018-03-23T13:01:59.433Z,54.83
2018-03-23T13:04:30.016Z,58.33
2018-03-23T13:06:59.056Z,58.27
2018-03-23T13:09:27.995Z,57.30
2018-03-23T13:11:57.912Z,58.10
2018-03-23T13:14:27.324Z,56.40
2018-03-23T13:16:57.098Z,63.03
2018-03-23T13:19:26.082Z,54.47
2018-03-23T13:21:54.970Z,67.03
2018-03-23T13:24:24.105Z,63.57
2018-03-23T13:26:54.036Z,73.97
2018-03-23T13:29:23.108Z,66.90
2018-03-23T13:31:52.908Z,76.77
2018-03-23T13:34:21.880Z,71.37
2018-03-23T13:36:50.921Z,67.67
2018-03-23T13:39:20.685Z,66.30
2018-03-23T13:41:49.751Z,67.63
2018-03-23T13:44:18.787Z,58.57
2018-03-23T13:46:53.435Z,61.00
2018-03-23T13:49:29.687Z,67.70
2018-03-23T13:51:59.588Z,85.00
2018-03-23T13:54:29.573Z,51.30
2018-03-23T13:56:58.542Z,54.90
2018-03-23T13:59:33.812Z,61.13
2018-03-23T14:02:02.892Z,56.10
2018-03-23T14:04:32.554Z,63.53
2018-03-23T14:07:01.659Z,51.93
2018-03-23T14:09:30.899Z,54.73
2018-03-23T14:11:59.994Z,59.23
2018-03-23T14:14:30.120Z,51.50
2018-03-23T14:16:59.057Z,71.03
2018-03-23T14:19:28.130Z,56.27
2018-03-23T14:21:57.224Z,55.97
2018-03-23T14:24:26.239Z,49.00
2018-03-23T14:26:55.323Z,48.07
2018-03-23T14:29:24.536Z,52.40
2018-03-23T14:31:54.601Z,53.23
2018-03-23T14:34:23.672Z,63.67
2018-03-23T14:36:52.565Z,58.40
2018-03-23T14:39:21.577Z,44.40
2018-03-23T14:41:51.391Z,48.13
2018-03-23T14:44:20.282Z,42.90
2018-03-23T14:46:49.284Z,45.33
2018-03-23T14:49:18.266Z,41.53
2018-03-23T14:51:47.245Z,59.50
2018-03-23T14:54:17.052Z,46.63
2018-03-23T14:56:46.669Z,47.63
2018-03-23T14:59:16.881Z,56.37
2018-03-23T15:01:45.893Z,44.13
2018-03-23T15:04:15.940Z,48.03
2018-03-23T15:06:44.917Z,37.93
2018-03-23T15:09:13.880Z,48.07
2018-03-23T15:11:42.882Z,44.03
2018-03-23T15:14:17.931Z,47.10
2018-03-23T15:16:47.350Z,50.70
2018-03-23T15:19:16.692Z,54.03
2018-03-23T15:21:45.776Z,46.93
2018-03-23T15:24:14.798Z,59.37
2018-03-23T15:26:44.143Z,63.17
2018-03-23T15:29:13.059Z,53.43
2018-03-23T15:31:42.108Z,59.07
2018-03-23T15:34:11.879Z,64.13
2018-03-23T15:36:40.938Z,60.80
2018-03-23T15:39:09.924Z,48.37
2018-03-23T15:41:39.663Z,56.80
2018-03-23T15:44:08.883Z,55.60
2018-03-23T15:46:37.824Z,59.50
2018-03-23T15:49:06.920Z,51.57
2018-03-23T15:51:36.128Z,49.60
2018-03-23T15:54:05.168Z,55.20
2018-03-23T15:56:34.470Z,51.80
2018-03-23T15:59:03.408Z,49.07
2018-03-23T16:01:32.488Z,46.67
2018-03-23T16:04:02.221Z,46.63
2018-03-23T16:06:31.383Z,47.43
2018-03-23T16:09:00.520Z,64.63
2018-03-23T16:11:30.427Z,75.37
2018-03-23T16:13:59.645Z,54.40
2018-03-23T16:16:28.741Z,88.17
2018-03-23T16:18:57.789Z,124.47
2018-03-23T16:21:26.780Z,137.30
2018-03-23T16:23:55.992Z,165.37
2018-03-23T16:26:25.127Z,164.30
2018-03-23T16:28:54.104Z,105.27
2018-03-23T16:31:23.395Z,171.17
2018-03-23T16:33:52.507Z,135.77
2018-03-23T16:36:21.922Z,158.43
2018-03-23T16:38:50.864Z,110.23
2018-03-23T16:41:19.854Z,96.80
2018-03-23T16:43:48.986Z,89.60
2018-03-23T16:46:19.270Z,104.03
2018-03-23T16:48:48.272Z,115.73
2018-03-23T16:51:17.343Z,138.73
2018-03-23T16:53:46.599Z,127.00
2018-03-23T16:56:15.990Z,121.80
2018-03-23T16:58:45.133Z,116.50
2018-03-23T17:01:14.228Z,93.33
2018-03-23T17:03:43.548Z,84.63
2018-03-23T17:06:13.281Z,80.40
2018-03-23T17:08:42.342Z,94.80
2018-03-23T17:11:11.489Z,125.70
2018-03-23T17:13:40.890Z,132.53
2018-03-23T17:16:10.012Z,119.80
2018-03-23T17:18:38.962Z,118.97
2018-03-23T17:21:07.992Z,99.47
2018-03-23T17:23:37.195Z,90.67
2018-03-23T17:26:06.599Z,136.60
2018-03-23T17:28:35.764Z,135.37
2018-03-23T17:31:05.075Z,125.17
2018-03-23T17:33:34.030Z,115.90
2018-03-23T17:36:03.042Z,131.67
2018-03-23T17:38:32.124Z,164.07
2018-03-23T17:41:05.217Z,114.50
2018-03-23T17:43:35.252Z,133.43
2018-03-23T17:46:04.600Z,101.10
2018-03-23T17:48:34.543Z,148.10
2018-03-23T17:51:04.431Z,133.13
2018-03-23T17:53:34.994Z,191.87
2018-03-23T17:56:05.751Z,164.53
2018-03-23T17:58:34.734Z,220.90
2018-03-23T18:01:03.757Z,252.53
2018-03-23T18:03:33.764Z,473.33
2018-03-23T18:06:03.290Z,305.93
2018-03-23T18:08:33.824Z,235.10
2018-03-23T18:11:03.058Z,164.83
2018-03-23T18:13:32.981Z,123.67
2018-03-23T18:16:02.965Z,118.77
2018-03-23T18:18:31.898Z,80.30
2018-03-23T18:21:01.096Z,91.67
2018-03-23T18:23:30.280Z,78.20
2018-03-23T18:26:00.120Z,66.83
2018-03-23T18:28:29.034Z,68.93
2018-03-23T18:30:58.131Z,90.33
2018-03-23T18:33:27.195Z,72.43
2018-03-23T18:35:56.243Z,84.27
2018-03-23T18:38:28.314Z,77.57
2018-03-23T18:40:57.374Z,82.00
2018-03-23T18:43:27.369Z,88.77
2018-03-23T18:45:57.489Z,83.93
2018-03-23T18:48:26.428Z,92.30
2018-03-23T18:50:56.263Z,90.47
2018-03-23T18:53:26.076Z,110.57
2018-03-23T18:55:57.387Z,127.70
2018-03-23T18:58:26.374Z,124.40
2018-03-23T19:00:55.547Z,136.47
2018-03-23T19:03:24.494Z,190.43
2018-03-23T19:05:54.626Z,244.07
2018-03-23T19:08:24.453Z,347.37
2018-03-23T19:10:53.568Z,318.20
2018-03-23T19:13:23.695Z,229.83
2018-03-23T19:15:52.770Z,179.67
2018-03-23T19:18:22.139Z,205.83
2018-03-23T19:20:51.186Z,219.93
2018-03-23T19:23:20.446Z,187.57
2018-03-23T19:25:49.509Z,168.27
2018-03-23T19:28:18.472Z,158.73
2018-03-23T19:30:47.395Z,137.10
2018-03-23T19:33:17.368Z,124.73
2018-03-23T19:35:46.372Z,103.57
2018-03-23T19:38:16.243Z,101.67
2018-03-23T19:40:45.268Z,90.17
2018-03-23T19:43:14.536Z,91.30
2018-03-23T19:45:43.478Z,80.93
2018-03-23T19:48:12.452Z,76.63
2018-03-23T19:50:41.572Z,68.12
2018-03-23T19:53:10.872Z,72.70
2018-03-23T19:55:39.852Z,62.07
2018-03-23T19:58:08.786Z,67.37
2018-03-23T20:00:37.968Z,94.73
2018-03-23T20:03:07.029Z,149.62
2018-03-23T20:05:36.043Z,152.75
2018-03-23T20:08:05.460Z,181.87
2018-03-23T20:10:35.243Z,125.57
2018-03-23T20:13:04.352Z,112.78
2018-03-23T20:15:33.696Z,112.60
2018-03-23T20:18:08.359Z,99.55
2018-03-23T20:20:42.908Z,106.82
2018-03-23T20:23:12.011Z,101.82
2018-03-23T20:25:42.125Z,113.25
2018-03-23T20:28:16.700Z,126.10
2018-03-23T20:30:45.770Z,119.85
2018-03-23T20:33:15.582Z,125.25
2018-03-23T20:35:44.641Z,117.75
2018-03-23T20:38:13.874Z,124.45
2018-03-23T20:40:43.110Z,123.35
2018-03-23T20:43:12.049Z,126.20
2018-03-23T20:45:42.081Z,134.12
2018-03-23T20:48:11.091Z,117.82
2018-03-23T20:50:40.116Z,117.95
2018-03-23T20:53:10.151Z,115.97
2018-03-23T20:55:39.079Z,120.45
2018-03-23T20:58:08.474Z,123.60
2018-03-23T21:00:37.559Z,107.47
2018-03-23T21:03:06.572Z,118.20
2018-03-23T21:05:36.279Z,127.43
2018-03-23T21:08:05.605Z,120.22
2018-03-23T21:10:35.516Z,127.28
2018-03-23T21:13:04.671Z,120.37
2018-03-23T21:15:33.792Z,124.03
2018-03-23T21:18:03.568Z,131.45
2018-03-23T21:20:33.483Z,133.77
2018-03-23T21:23:02.543Z,126.85
2018-03-23T21:25:31.570Z,140.52
2018-03-23T21:28:00.630Z,139.23
2018-03-23T21:30:29.632Z,141.88
2018-03-23T21:32:58.578Z,156.63
2018-03-23T21:35:27.545Z,132.02
2018-03-23T21:37:56.514Z,120.60
2018-03-23T21:40:25.607Z,152.52
2018-03-23T21:42:54.609Z,119.43
2018-03-23T21:45:23.590Z,138.65
2018-03-23T21:47:52.522Z,161.10
2018-03-23T21:50:21.506Z,168.27
2018-03-23T21:52:50.588Z,291.90
2018-03-23T21:55:20.526Z,380.65
2018-03-23T21:57:49.524Z,293.98
2018-03-23T22:00:18.513Z,193.60
2018-03-23T22:02:47.397Z,174.07
2018-03-23T22:05:22.380Z,132.85
2018-03-23T22:07:57.157Z,137.73
2018-03-23T22:10:31.704Z,151.93
2018-03-23T22:13:06.160Z,136.35
2018-03-23T22:15:40.944Z,140.43
2018-03-23T22:18:13.773Z,147.10
2018-03-23T22:20:47.386Z,136.15
2018-03-23T22:23:18.846Z,139.70
2018-03-23T22:25:51.299Z,123.25
2018-03-23T22:28:26.132Z,128.73
2018-03-23T22:31:00.123Z,168.62
2018-03-23T22:33:34.346Z,147.62
2018-03-23T22:36:07.251Z,142.50
2018-03-23T22:38:42.529Z,138.20
2018-03-23T22:41:14.634Z,186.75
2018-03-23T22:43:47.690Z,220.48
2018-03-23T22:46:19.483Z,138.15
2018-03-23T22:48:50.863Z,150.68
2018-03-23T22:51:23.914Z,149.20
2018-03-23T22:53:53.740Z,146.98
2018-03-23T22:56:26.924Z,163.12
2018-03-23T22:59:01.697Z,182.15
2018-03-23T23:01:36.604Z,153.18
2018-03-23T23:04:06.279Z,173.90
2018-03-23T23:06:35.357Z,182.98
2018-03-23T23:09:05.366Z,204.45
2018-03-23T23:11:35.213Z,181.25
2018-03-23T23:14:04.348Z,175.57
2018-03-23T23:16:33.305Z,175.65
2018-03-23T23:19:02.587Z,178.85
2018-03-23T23:21:31.624Z,182.02
2018-03-23T23:24:00.570Z,212.30
2018-03-23T23:26:29.730Z,208.65
2018-03-23T23:28:59.566Z,189.82
2018-03-23T23:31:28.568Z,224.95
2018-03-23T23:33:57.743Z,275.40
2018-03-23T23:36:26.912Z,178.32
2018-03-23T23:38:56.407Z,169.18
2018-03-23T23:41:25.395Z,230.77
2018-03-23T23:43:54.319Z,208.13
2018-03-23T23:46:23.579Z,202.73
2018-03-23T23:48:52.546Z,158.32
2018-03-23T23:51:22.435Z,183.80
2018-03-23T23:53:51.394Z,188.73
2018-03-23T23:56:20.307Z,153.65
